sensor_id;sensor_type;location;lat;lon;timestamp;pressure;altitude;pressure_sealevel;temperature;humidity
34738;BME280;39910;47.154;27.614;2022-09-27T00:02:13;99646.88;;;17.20;100.00
34738;BME280;39910;47.154;27.614;2022-09-27T00:04:38;99643.97;;;17.09;100.00
34738;BME280;39910;47.154;27.614;2022-09-27T00:07:04;99639.44;;;17.10;100.00
34738;BME280;39910;47.154;27.614;2022-09-27T00:09:30;99638.38;;;17.11;100.00
34738;BME280;39910;47.154;27.614;2022-09-27T00:11:55;99639.53;;;17.15;100.00
34738;BME280;39910;47.154;27.614;2022-09-27T00:14:21;99640.59;;;17.14;100.00
34738;BME280;39910;47.154;27.614;2022-09-27T00:16:47;99632.69;;;17.07;100.00
34738;BME280;39910;47.154;27.614;2022-09-27T00:19:15;99634.56;;;17.07;100.00
34738;BME280;39910;47.154;27.614;2022-09-27T00:21:42;99625.97;;;17.05;100.00
34738;BME280;39910;47.154;27.614;2022-09-27T00:24:12;99625.72;;;17.06;100.00
34738;BME280;39910;47.154;27.614;2022-09-27T00:26:39;99631.31;;;17.05;100.00
34738;BME280;39910;47.154;27.614;2022-09-27T00:29:04;99628.66;;;17.05;100.00
34738;BME280;39910;47.154;27.614;2022-09-27T00:31:31;99612.63;;;16.81;100.00
34738;BME280;39910;47.154;27.614;2022-09-27T00:34:01;99616.09;;;16.94;100.00
34738;BME280;39910;47.154;27.614;2022-09-27T00:36:27;99618.13;;;17.03;100.00
34738;BME280;39910;47.154;27.614;2022-09-27T00:38:54;99612.44;;;17.11;100.00
34738;BME280;39910;47.154;27.614;2022-09-27T00:41:33;99612.56;;;17.05;100.00
34738;BME280;39910;47.154;27.614;2022-09-27T00:52:20;99607.13;;;17.17;100.00
34738;BME280;39910;47.154;27.614;2022-09-27T00:54:50;99600.06;;;17.10;100.00
34738;BME280;39910;47.154;27.614;2022-09-27T00:57:20;99602.97;;;17.09;100.00
34738;BME280;39910;47.154;27.614;2022-09-27T00:59:49;99594.94;;;17.09;100.00
34738;BME280;39910;47.154;27.614;2022-09-27T01:02:16;99589.41;;;16.99;100.00
34738;BME280;39910;47.154;27.614;2022-09-27T01:04:43;99579.22;;;16.84;100.00
34738;BME280;39910;47.154;27.614;2022-09-27T01:07:09;99587.28;;;17.01;100.00
34738;BME280;39910;47.154;27.614;2022-09-27T01:09:34;99592.16;;;17.04;100.00
34738;BME280;39910;47.154;27.614;2022-09-27T01:14:57;99601.91;;;16.81;100.00
34738;BME280;39910;47.154;27.614;2022-09-27T01:17:29;99599.59;;;16.85;100.00
34738;BME280;39910;47.154;27.614;2022-09-27T01:20:06;99598.88;;;16.90;100.00
34738;BME280;39910;47.154;27.614;2022-09-27T01:36:27;99565.88;;;16.61;100.00
34738;BME280;39910;47.154;27.614;2022-09-27T01:44:38;99549.72;;;16.44;100.00
34738;BME280;39910;47.154;27.614;2022-09-27T01:47:21;99547.91;;;16.33;100.00
34738;BME280;39910;47.154;27.614;2022-09-27T01:50:04;99558.97;;;16.01;100.00
34738;BME280;39910;47.154;27.614;2022-09-27T01:53:02;99563.75;;;15.75;100.00
34738;BME280;39910;47.154;27.614;2022-09-27T01:55:32;99559.00;;;15.66;100.00
34738;BME280;39910;47.154;27.614;2022-09-27T01:58:16;99554.94;;;15.22;100.00
34738;BME280;39910;47.154;27.614;2022-09-27T02:00:48;99560.91;;;15.47;100.00
34738;BME280;39910;47.154;27.614;2022-09-27T02:03:30;99569.84;;;15.53;100.00
34738;BME280;39910;47.154;27.614;2022-09-27T02:06:03;99568.69;;;15.48;100.00
34738;BME280;39910;47.154;27.614;2022-09-27T02:11:03;99562.38;;;15.73;100.00
34738;BME280;39910;47.154;27.614;2022-09-27T02:13:36;99565.28;;;15.95;100.00
34738;BME280;39910;47.154;27.614;2022-09-27T02:24:31;99550.25;;;15.70;100.00
34738;BME280;39910;47.154;27.614;2022-09-27T02:27:05;99554.56;;;15.71;100.00
34738;BME280;39910;47.154;27.614;2022-09-27T02:29:46;99549.06;;;15.55;100.00
34738;BME280;39910;47.154;27.614;2022-09-27T02:32:15;99545.81;;;15.53;100.00
34738;BME280;39910;47.154;27.614;2022-09-27T02:34:41;99547.56;;;15.59;100.00
34738;BME280;39910;47.154;27.614;2022-09-27T02:37:09;99542.00;;;15.84;100.00
34738;BME280;39910;47.154;27.614;2022-09-27T02:39:35;99539.09;;;15.97;100.00
34738;BME280;39910;47.154;27.614;2022-09-27T02:42:02;99533.38;;;16.05;100.00
34738;BME280;39910;47.154;27.614;2022-09-27T02:44:28;99531.97;;;16.14;100.00
34738;BME280;39910;47.154;27.614;2022-09-27T02:47:08;99528.72;;;16.12;100.00
34738;BME280;39910;47.154;27.614;2022-09-27T02:58:14;99500.28;;;16.35;100.00
34738;BME280;39910;47.154;27.614;2022-09-27T03:01:42;99502.03;;;16.41;100.00
34738;BME280;39910;47.154;27.614;2022-09-27T03:06:15;99501.06;;;16.47;100.00
34738;BME280;39910;47.154;27.614;2022-09-27T03:08:42;99496.16;;;16.55;100.00
34738;BME280;39910;47.154;27.614;2022-09-27T03:11:08;99492.56;;;16.50;100.00
34738;BME280;39910;47.154;27.614;2022-09-27T03:13:34;99495.59;;;16.42;100.00
34738;BME280;39910;47.154;27.614;2022-09-27T03:16:04;99489.94;;;16.38;100.00
34738;BME280;39910;47.154;27.614;2022-09-27T03:18:30;99476.44;;;16.33;100.00
34738;BME280;39910;47.154;27.614;2022-09-27T03:20:56;99484.66;;;16.03;100.00
34738;BME280;39910;47.154;27.614;2022-09-27T03:23:21;99484.66;;;15.56;100.00
34738;BME280;39910;47.154;27.614;2022-09-27T03:25:47;99493.06;;;15.71;100.00
34738;BME280;39910;47.154;27.614;2022-09-27T03:28:13;99493.50;;;15.92;100.00
34738;BME280;39910;47.154;27.614;2022-09-27T03:30:38;99489.22;;;15.91;100.00
34738;BME280;39910;47.154;27.614;2022-09-27T03:33:04;99477.34;;;15.98;100.00
34738;BME280;39910;47.154;27.614;2022-09-27T03:35:30;99481.09;;;15.74;100.00
34738;BME280;39910;47.154;27.614;2022-09-27T03:37:55;99482.72;;;15.87;100.00
34738;BME280;39910;47.154;27.614;2022-09-27T03:40:21;99474.69;;;15.87;100.00
34738;BME280;39910;47.154;27.614;2022-09-27T03:42:46;99462.34;;;15.86;100.00
34738;BME280;39910;47.154;27.614;2022-09-27T03:45:14;99460.28;;;15.88;100.00
34738;BME280;39910;47.154;27.614;2022-09-27T03:47:40;99449.69;;;15.58;100.00
34738;BME280;39910;47.154;27.614;2022-09-27T03:50:06;99451.69;;;15.62;100.00
34738;BME280;39910;47.154;27.614;2022-09-27T03:52:33;99449.22;;;15.61;100.00
34738;BME280;39910;47.154;27.614;2022-09-27T03:54:58;99458.66;;;15.63;100.00
34738;BME280;39910;47.154;27.614;2022-09-27T03:57:24;99448.88;;;15.69;100.00
34738;BME280;39910;47.154;27.614;2022-09-27T03:59:50;99441.19;;;15.49;100.00
34738;BME280;39910;47.154;27.614;2022-09-27T04:02:15;99448.75;;;15.52;100.00
34738;BME280;39910;47.154;27.614;2022-09-27T04:04:41;99450.97;;;15.43;100.00
34738;BME280;39910;47.154;27.614;2022-09-27T04:07:07;99455.38;;;15.26;100.00
34738;BME280;39910;47.154;27.614;2022-09-27T04:09:35;99448.06;;;15.22;100.00
34738;BME280;39910;47.154;27.614;2022-09-27T04:12:02;99432.34;;;15.02;100.00
34738;BME280;39910;47.154;27.614;2022-09-27T04:14:28;99447.22;;;15.09;100.00
34738;BME280;39910;47.154;27.614;2022-09-27T04:16:54;99437.13;;;15.00;100.00
34738;BME280;39910;47.154;27.614;2022-09-27T04:19:20;99441.53;;;15.17;100.00
34738;BME280;39910;47.154;27.614;2022-09-27T04:21:45;99433.84;;;14.98;100.00
34738;BME280;39910;47.154;27.614;2022-09-27T04:24:11;99437.13;;;15.11;100.00
34738;BME280;39910;47.154;27.614;2022-09-27T04:26:37;99435.28;;;15.24;100.00
34738;BME280;39910;47.154;27.614;2022-09-27T04:29:04;99435.28;;;15.24;100.00
34738;BME280;39910;47.154;27.614;2022-09-27T04:31:30;99441.66;;;15.46;100.00
34738;BME280;39910;47.154;27.614;2022-09-27T04:33:56;99436.78;;;15.31;100.00
34738;BME280;39910;47.154;27.614;2022-09-27T04:36:25;99438.78;;;15.36;100.00
34738;BME280;39910;47.154;27.614;2022-09-27T04:38:54;99427.84;;;15.72;100.00
34738;BME280;39910;47.154;27.614;2022-09-27T04:41:21;99438.56;;;15.72;100.00
34738;BME280;39910;47.154;27.614;2022-09-27T04:43:48;99438.66;;;15.78;100.00
34738;BME280;39910;47.154;27.614;2022-09-27T04:46:13;99443.88;;;15.61;100.00
34738;BME280;39910;47.154;27.614;2022-09-27T04:48:39;99443.22;;;15.65;100.00
34738;BME280;39910;47.154;27.614;2022-09-27T04:51:06;99431.47;;;15.66;100.00
34738;BME280;39910;47.154;27.614;2022-09-27T04:53:31;99415.63;;;15.53;100.00
34738;BME280;39910;47.154;27.614;2022-09-27T04:55:58;99434.81;;;15.50;100.00
34738;BME280;39910;47.154;27.614;2022-09-27T04:58:26;99436.31;;;15.46;100.00
34738;BME280;39910;47.154;27.614;2022-09-27T05:00:54;99440.88;;;15.69;100.00
34738;BME280;39910;47.154;27.614;2022-09-27T05:03:21;99442.72;;;15.68;100.00
34738;BME280;39910;47.154;27.614;2022-09-27T05:05:46;99440.94;;;15.86;100.00
34738;BME280;39910;47.154;27.614;2022-09-27T05:08:12;99440.50;;;15.54;100.00
34738;BME280;39910;47.154;27.614;2022-09-27T05:10:38;99437.50;;;15.50;100.00
34738;BME280;39910;47.154;27.614;2022-09-27T05:13:03;99429.81;;;15.42;100.00
34738;BME280;39910;47.154;27.614;2022-09-27T05:15:29;99440.78;;;16.73;100.00
34738;BME280;39910;47.154;27.614;2022-09-27T05:17:55;99432.66;;;16.11;100.00
34738;BME280;39910;47.154;27.614;2022-09-27T05:20:20;99433.81;;;16.72;100.00
34738;BME280;39910;47.154;27.614;2022-09-27T05:22:46;99424.13;;;18.15;100.00
34738;BME280;39910;47.154;27.614;2022-09-27T05:25:12;99418.13;;;18.84;100.00
34738;BME280;39910;47.154;27.614;2022-09-27T05:27:37;99396.13;;;19.24;100.00
34738;BME280;39910;47.154;27.614;2022-09-27T05:30:04;99396.66;;;18.62;100.00
34738;BME280;39910;47.154;27.614;2022-09-27T05:32:32;99398.84;;;17.89;100.00
34738;BME280;39910;47.154;27.614;2022-09-27T05:34:58;99406.22;;;17.22;100.00
34738;BME280;39910;47.154;27.614;2022-09-27T05:37:24;99415.47;;;16.80;100.00
34738;BME280;39910;47.154;27.614;2022-09-27T05:39:49;99431.47;;;16.75;100.00
34738;BME280;39910;47.154;27.614;2022-09-27T05:42:15;99434.41;;;19.42;100.00
34738;BME280;39910;47.154;27.614;2022-09-27T05:44:41;99408.56;;;19.78;100.00
34738;BME280;39910;47.154;27.614;2022-09-27T05:47:11;99400.47;;;20.91;100.00
34738;BME280;39910;47.154;27.614;2022-09-27T05:49:36;99389.13;;;23.52;100.00
34738;BME280;39910;47.154;27.614;2022-09-27T05:52:03;99391.47;;;23.34;100.00
34738;BME280;39910;47.154;27.614;2022-09-27T05:54:29;99398.97;;;24.71;100.00
34738;BME280;39910;47.154;27.614;2022-09-27T05:56:55;99415.75;;;28.60;100.00
34738;BME280;39910;47.154;27.614;2022-09-27T05:59:25;99420.03;;;25.99;100.00
34738;BME280;39910;47.154;27.614;2022-09-27T06:01:51;99410.38;;;24.87;100.00
34738;BME280;39910;47.154;27.614;2022-09-27T06:04:17;99400.16;;;21.49;100.00
34738;BME280;39910;47.154;27.614;2022-09-27T06:06:44;99398.34;;;23.98;100.00
34738;BME280;39910;47.154;27.614;2022-09-27T06:09:10;99401.06;;;24.93;100.00
34738;BME280;39910;47.154;27.614;2022-09-27T06:11:36;99405.31;;;23.28;100.00
34738;BME280;39910;47.154;27.614;2022-09-27T06:14:02;99399.38;;;24.03;100.00
34738;BME280;39910;47.154;27.614;2022-09-27T06:16:27;99397.09;;;24.34;100.00
34738;BME280;39910;47.154;27.614;2022-09-27T06:18:53;99394.06;;;26.43;100.00
34738;BME280;39910;47.154;27.614;2022-09-27T06:21:18;99406.19;;;25.41;100.00
34738;BME280;39910;47.154;27.614;2022-09-27T06:23:44;99398.78;;;26.51;100.00
34738;BME280;39910;47.154;27.614;2022-09-27T06:26:10;99396.59;;;25.89;100.00
34738;BME280;39910;47.154;27.614;2022-09-27T06:28:36;99390.28;;;26.89;100.00
34738;BME280;39910;47.154;27.614;2022-09-27T06:31:04;99402.16;;;24.92;100.00
34738;BME280;39910;47.154;27.614;2022-09-27T06:33:31;99402.31;;;25.60;100.00
34738;BME280;39910;47.154;27.614;2022-09-27T06:36:03;99402.84;;;24.65;100.00
34738;BME280;39910;47.154;27.614;2022-09-27T06:38:29;99404.09;;;27.01;100.00
34738;BME280;39910;47.154;27.614;2022-09-27T06:40:55;99399.06;;;27.08;100.00
34738;BME280;39910;47.154;27.614;2022-09-27T06:43:23;99390.88;;;28.45;100.00
34738;BME280;39910;47.154;27.614;2022-09-27T06:45:49;99399.88;;;27.40;100.00
34738;BME280;39910;47.154;27.614;2022-09-27T06:48:15;99401.47;;;28.72;100.00
34738;BME280;39910;47.154;27.614;2022-09-27T06:50:43;99384.47;;;27.75;100.00
34738;BME280;39910;47.154;27.614;2022-09-27T06:53:10;99401.03;;;29.72;100.00
34738;BME280;39910;47.154;27.614;2022-09-27T06:55:37;99392.97;;;27.73;100.00
34738;BME280;39910;47.154;27.614;2022-09-27T06:58:03;99393.13;;;30.09;100.00
34738;BME280;39910;47.154;27.614;2022-09-27T07:00:51;99385.38;;;26.77;100.00
34738;BME280;39910;47.154;27.614;2022-09-27T07:03:18;99386.47;;;26.17;100.00
34738;BME280;39910;47.154;27.614;2022-09-27T07:05:57;99376.09;;;28.54;100.00
34738;BME280;39910;47.154;27.614;2022-09-27T07:08:23;99383.31;;;26.74;100.00
34738;BME280;39910;47.154;27.614;2022-09-27T07:10:50;99376.38;;;24.00;100.00
34738;BME280;39910;47.154;27.614;2022-09-27T07:13:17;99380.63;;;25.14;100.00
34738;BME280;39910;47.154;27.614;2022-09-27T07:15:43;99369.81;;;24.25;100.00
34738;BME280;39910;47.154;27.614;2022-09-27T07:18:08;99368.72;;;28.72;100.00
34738;BME280;39910;47.154;27.614;2022-09-27T07:20:34;99382.03;;;24.60;100.00
34738;BME280;39910;47.154;27.614;2022-09-27T07:23:05;99383.13;;;23.79;100.00
34738;BME280;39910;47.154;27.614;2022-09-27T07:25:31;99384.25;;;27.63;100.00
34738;BME280;39910;47.154;27.614;2022-09-27T07:28:08;99386.34;;;28.92;100.00
34738;BME280;39910;47.154;27.614;2022-09-27T07:30:36;99381.06;;;26.98;100.00
34738;BME280;39910;47.154;27.614;2022-09-27T07:33:03;99391.69;;;27.71;100.00
34738;BME280;39910;47.154;27.614;2022-09-27T07:35:30;99398.13;;;29.78;100.00
34738;BME280;39910;47.154;27.614;2022-09-27T07:37:56;99385.72;;;28.69;100.00
34738;BME280;39910;47.154;27.614;2022-09-27T07:40:24;99395.69;;;29.55;100.00
34738;BME280;39910;47.154;27.614;2022-09-27T07:42:58;99390.72;;;31.49;89.68
34738;BME280;39910;47.154;27.614;2022-09-27T07:45:25;99392.03;;;29.72;94.59
34738;BME280;39910;47.154;27.614;2022-09-27T07:47:51;99382.19;;;30.09;93.57
34738;BME280;39910;47.154;27.614;2022-09-27T07:50:17;99388.69;;;30.67;90.99
34738;BME280;39910;47.154;27.614;2022-09-27T07:52:45;99384.28;;;28.63;100.00
34738;BME280;39910;47.154;27.614;2022-09-27T07:55:13;99376.44;;;30.02;95.83
34738;BME280;39910;47.154;27.614;2022-09-27T07:57:39;99368.25;;;28.44;100.00
34738;BME280;39910;47.154;27.614;2022-09-27T08:00:08;99372.78;;;29.22;100.00
34738;BME280;39910;47.154;27.614;2022-09-27T08:02:34;99368.66;;;27.86;100.00
34738;BME280;39910;47.154;27.614;2022-09-27T08:05:00;99366.31;;;28.62;100.00
34738;BME280;39910;47.154;27.614;2022-09-27T08:07:26;99369.31;;;25.81;100.00
34738;BME280;39910;47.154;27.614;2022-09-27T08:09:52;99369.66;;;30.29;99.11
34738;BME280;39910;47.154;27.614;2022-09-27T08:12:18;99376.31;;;30.40;93.04
34738;BME280;39910;47.154;27.614;2022-09-27T08:14:48;99385.38;;;29.90;99.46
34738;BME280;39910;47.154;27.614;2022-09-27T08:17:15;99373.91;;;29.97;97.34
34738;BME280;39910;47.154;27.614;2022-09-27T08:19:41;99367.41;;;28.78;97.53
34738;BME280;39910;47.154;27.614;2022-09-27T08:22:10;99357.78;;;28.63;100.00
34738;BME280;39910;47.154;27.614;2022-09-27T08:24:38;99353.22;;;30.08;97.53
34738;BME280;39910;47.154;27.614;2022-09-27T08:27:04;99342.75;;;29.89;94.49
34738;BME280;39910;47.154;27.614;2022-09-27T08:29:33;99348.69;;;27.19;100.00
34738;BME280;39910;47.154;27.614;2022-09-27T08:31:58;99345.59;;;26.23;100.00
34738;BME280;39910;47.154;27.614;2022-09-27T08:34:24;99342.50;;;27.36;100.00
34738;BME280;39910;47.154;27.614;2022-09-27T08:36:50;99331.63;;;27.45;100.00
34738;BME280;39910;47.154;27.614;2022-09-27T08:39:15;99324.28;;;27.06;100.00
34738;BME280;39910;47.154;27.614;2022-09-27T08:41:49;99338.69;;;29.28;100.00
34738;BME280;39910;47.154;27.614;2022-09-27T08:47:26;99336.75;;;27.07;100.00
34738;BME280;39910;47.154;27.614;2022-09-27T08:52:40;99334.19;;;25.84;100.00
34738;BME280;39910;47.154;27.614;2022-09-27T08:55:42;99337.78;;;26.43;100.00
34738;BME280;39910;47.154;27.614;2022-09-27T09:00:53;99342.47;;;27.76;100.00
34738;BME280;39910;47.154;27.614;2022-09-27T09:03:23;99347.50;;;28.17;100.00
34738;BME280;39910;47.154;27.614;2022-09-27T09:15:38;99340.81;;;28.32;100.00
34738;BME280;39910;47.154;27.614;2022-09-27T09:35:02;99291.22;;;27.38;100.00
34738;BME280;39910;47.154;27.614;2022-09-27T09:37:35;99280.22;;;27.61;100.00
34738;BME280;39910;47.154;27.614;2022-09-27T09:40:27;99280.63;;;26.21;100.00
34738;BME280;39910;47.154;27.614;2022-09-27T09:43:17;99278.00;;;26.30;100.00
34738;BME280;39910;47.154;27.614;2022-09-27T09:45:51;99278.09;;;24.97;100.00
34738;BME280;39910;47.154;27.614;2022-09-27T09:48:39;99272.34;;;22.28;100.00
34738;BME280;39910;47.154;27.614;2022-09-27T09:51:13;99267.50;;;24.17;100.00
34738;BME280;39910;47.154;27.614;2022-09-27T09:53:46;99276.22;;;25.89;100.00
34738;BME280;39910;47.154;27.614;2022-09-27T09:56:21;99287.19;;;24.88;100.00
34738;BME280;39910;47.154;27.614;2022-09-27T09:58:56;99285.94;;;23.10;100.00
34738;BME280;39910;47.154;27.614;2022-09-27T10:01:27;99277.38;;;24.08;100.00
34738;BME280;39910;47.154;27.614;2022-09-27T10:03:55;99279.72;;;22.52;100.00
34738;BME280;39910;47.154;27.614;2022-09-27T10:06:22;99281.06;;;24.17;100.00
34738;BME280;39910;47.154;27.614;2022-09-27T10:08:48;99270.94;;;25.01;100.00
34738;BME280;39910;47.154;27.614;2022-09-27T10:11:23;99268.28;;;21.37;100.00
34738;BME280;39910;47.154;27.614;2022-09-27T10:13:51;99269.47;;;21.70;100.00
34738;BME280;39910;47.154;27.614;2022-09-27T10:16:19;99276.31;;;23.23;100.00
34738;BME280;39910;47.154;27.614;2022-09-27T10:18:46;99274.75;;;24.40;100.00
34738;BME280;39910;47.154;27.614;2022-09-27T10:21:18;99274.78;;;24.54;100.00
34738;BME280;39910;47.154;27.614;2022-09-27T10:26:35;99268.31;;;23.98;100.00
34738;BME280;39910;47.154;27.614;2022-09-27T10:31:52;99267.72;;;24.02;100.00
34738;BME280;39910;47.154;27.614;2022-09-27T10:34:24;99267.13;;;24.05;100.00
34738;BME280;39910;47.154;27.614;2022-09-27T10:37:15;99261.06;;;23.32;100.00
34738;BME280;39910;47.154;27.614;2022-09-27T10:39:46;99243.97;;;22.60;100.00
34738;BME280;39910;47.154;27.614;2022-09-27T10:42:31;99254.75;;;24.36;100.00
34738;BME280;39910;47.154;27.614;2022-09-27T10:45:30;99252.69;;;24.47;100.00
34738;BME280;39910;47.154;27.614;2022-09-27T10:48:00;99256.09;;;25.13;100.00
34738;BME280;39910;47.154;27.614;2022-09-27T10:50:28;99252.94;;;25.47;100.00
34738;BME280;39910;47.154;27.614;2022-09-27T10:53:05;99247.34;;;25.16;100.00
34738;BME280;39910;47.154;27.614;2022-09-27T10:55:36;99243.63;;;25.25;100.00
34738;BME280;39910;47.154;27.614;2022-09-27T10:58:04;99245.94;;;25.04;100.00
34738;BME280;39910;47.154;27.614;2022-09-27T11:00:39;99236.97;;;25.31;100.00
34738;BME280;39910;47.154;27.614;2022-09-27T11:03:13;99241.19;;;25.38;100.00
34738;BME280;39910;47.154;27.614;2022-09-27T11:05:39;99243.78;;;24.88;100.00
34738;BME280;39910;47.154;27.614;2022-09-27T11:08:31;99241.34;;;24.26;100.00
34738;BME280;39910;47.154;27.614;2022-09-27T11:11:18;99244.06;;;24.72;100.00
34738;BME280;39910;47.154;27.614;2022-09-27T11:14:21;99246.63;;;24.83;100.00
34738;BME280;39910;47.154;27.614;2022-09-27T11:17:07;99246.09;;;24.15;100.00
34738;BME280;39910;47.154;27.614;2022-09-27T11:27:55;99238.63;;;24.59;100.00
34738;BME280;39910;47.154;27.614;2022-09-27T11:30:23;99235.44;;;24.70;100.00
34738;BME280;39910;47.154;27.614;2022-09-27T11:36:15;99234.50;;;23.96;100.00
34738;BME280;39910;47.154;27.614;2022-09-27T11:41:29;99222.47;;;24.67;100.00
34738;BME280;39910;47.154;27.614;2022-09-27T11:53:47;99222.47;;;24.53;100.00
34738;BME280;39910;47.154;27.614;2022-09-27T11:58:53;99221.47;;;23.79;100.00
34738;BME280;39910;47.154;27.614;2022-09-27T12:06:20;99218.19;;;24.15;100.00
34738;BME280;39910;47.154;27.614;2022-09-27T12:09:12;99219.75;;;23.03;100.00
34738;BME280;39910;47.154;27.614;2022-09-27T12:11:50;99218.50;;;23.57;100.00
34738;BME280;39910;47.154;27.614;2022-09-27T12:16:46;99217.91;;;25.09;100.00
34738;BME280;39910;47.154;27.614;2022-09-27T12:19:21;99220.78;;;24.85;100.00
34738;BME280;39910;47.154;27.614;2022-09-27T12:21:48;99213.63;;;23.96;100.00
34738;BME280;39910;47.154;27.614;2022-09-27T12:24:20;99211.94;;;24.01;100.00
34738;BME280;39910;47.154;27.614;2022-09-27T12:26:51;99207.66;;;23.81;100.00
34738;BME280;39910;47.154;27.614;2022-09-27T12:32:04;99201.09;;;24.93;100.00
34738;BME280;39910;47.154;27.614;2022-09-27T12:37:20;99193.88;;;25.66;100.00
34738;BME280;39910;47.154;27.614;2022-09-27T12:51:17;99202.66;;;24.39;100.00
34738;BME280;39910;47.154;27.614;2022-09-27T12:54:02;99203.66;;;24.43;100.00
34738;BME280;39910;47.154;27.614;2022-09-27T12:57:41;99207.34;;;23.82;100.00
34738;BME280;39910;47.154;27.614;2022-09-27T12:59:53;99197.84;;;24.50;100.00
34738;BME280;39910;47.154;27.614;2022-09-27T13:13:03;99186.38;;;24.07;100.00
34738;BME280;39910;47.154;27.614;2022-09-27T13:15:35;99172.34;;;24.65;100.00
34738;BME280;39910;47.154;27.614;2022-09-27T13:18:16;99184.41;;;24.86;100.00
34738;BME280;39910;47.154;27.614;2022-09-27T13:20:51;99180.84;;;23.79;100.00
34738;BME280;39910;47.154;27.614;2022-09-27T13:31:02;99175.03;;;24.51;100.00
34738;BME280;39910;47.154;27.614;2022-09-27T13:33:51;99171.44;;;24.23;100.00
34738;BME280;39910;47.154;27.614;2022-09-27T13:52:44;99179.34;;;23.73;100.00
34738;BME280;39910;47.154;27.614;2022-09-27T13:55:38;99181.69;;;23.93;100.00
34738;BME280;39910;47.154;27.614;2022-09-27T14:00:45;99187.41;;;24.11;100.00
34738;BME280;39910;47.154;27.614;2022-09-27T14:05:59;99181.66;;;23.80;100.00
34738;BME280;39910;47.154;27.614;2022-09-27T14:08:31;99188.50;;;24.42;100.00
34738;BME280;39910;47.154;27.614;2022-09-27T14:11:00;99188.53;;;23.91;100.00
34738;BME280;39910;47.154;27.614;2022-09-27T14:13:28;99177.34;;;24.44;100.00
34738;BME280;39910;47.154;27.614;2022-09-27T14:15:58;99186.16;;;24.03;100.00
34738;BME280;39910;47.154;27.614;2022-09-27T14:18:24;99183.88;;;24.43;100.00
34738;BME280;39910;47.154;27.614;2022-09-27T14:20:51;99176.59;;;24.24;100.00
34738;BME280;39910;47.154;27.614;2022-09-27T14:23:21;99177.81;;;23.99;100.00
34738;BME280;39910;47.154;27.614;2022-09-27T14:25:52;99172.19;;;23.96;100.00
34738;BME280;39910;47.154;27.614;2022-09-27T14:28:28;99169.31;;;24.06;100.00
34738;BME280;39910;47.154;27.614;2022-09-27T14:31:20;99171.41;;;23.77;100.00
34738;BME280;39910;47.154;27.614;2022-09-27T14:33:48;99174.34;;;23.80;100.00
34738;BME280;39910;47.154;27.614;2022-09-27T14:36:26;99167.69;;;23.73;100.00
34738;BME280;39910;47.154;27.614;2022-09-27T14:39:21;99170.59;;;23.76;100.00
34738;BME280;39910;47.154;27.614;2022-09-27T14:41:47;99168.06;;;23.66;100.00
34738;BME280;39910;47.154;27.614;2022-09-27T14:44:21;99163.59;;;23.75;100.00
34738;BME280;39910;47.154;27.614;2022-09-27T14:47:06;99163.94;;;22.35;100.00
34738;BME280;39910;47.154;27.614;2022-09-27T14:49:32;99168.63;;;22.24;100.00
34738;BME280;39910;47.154;27.614;2022-09-27T14:51:59;99163.38;;;22.62;100.00
34738;BME280;39910;47.154;27.614;2022-09-27T14:54:27;99167.69;;;22.92;100.00
34738;BME280;39910;47.154;27.614;2022-09-27T14:56:55;99166.06;;;22.09;100.00
34738;BME280;39910;47.154;27.614;2022-09-27T14:59:26;99168.00;;;22.32;100.00
34738;BME280;39910;47.154;27.614;2022-09-27T15:01:58;99154.16;;;22.10;100.00
34738;BME280;39910;47.154;27.614;2022-09-27T15:04:29;99164.72;;;22.12;100.00
34738;BME280;39910;47.154;27.614;2022-09-27T15:06:56;99166.47;;;22.26;100.00
34738;BME280;39910;47.154;27.614;2022-09-27T15:09:23;99170.44;;;22.00;100.00
34738;BME280;39910;47.154;27.614;2022-09-27T15:11:54;99175.19;;;21.79;100.00
34738;BME280;39910;47.154;27.614;2022-09-27T15:14:23;99154.31;;;21.56;100.00
34738;BME280;39910;47.154;27.614;2022-09-27T15:16:50;99172.38;;;21.94;100.00
34738;BME280;39910;47.154;27.614;2022-09-27T15:21:48;99163.97;;;21.62;100.00
34738;BME280;39910;47.154;27.614;2022-09-27T15:27:01;99177.69;;;21.70;100.00
34738;BME280;39910;47.154;27.614;2022-09-27T15:29:27;99179.59;;;21.65;100.00
34738;BME280;39910;47.154;27.614;2022-09-27T15:32:04;99166.72;;;21.51;100.00
34738;BME280;39910;47.154;27.614;2022-09-27T15:34:31;99177.75;;;21.60;100.00
34738;BME280;39910;47.154;27.614;2022-09-27T15:37:02;99177.75;;;21.60;100.00
34738;BME280;39910;47.154;27.614;2022-09-27T15:39:30;99177.78;;;21.55;100.00
34738;BME280;39910;47.154;27.614;2022-09-27T15:42:11;99175.50;;;21.33;100.00
34738;BME280;39910;47.154;27.614;2022-09-27T15:52:46;99185.88;;;20.90;100.00
34738;BME280;39910;47.154;27.614;2022-09-27T15:55:16;99189.09;;;20.92;100.00
34738;BME280;39910;47.154;27.614;2022-09-27T15:57:43;99185.13;;;20.75;100.00
34738;BME280;39910;47.154;27.614;2022-09-27T16:00:13;99183.28;;;20.60;100.00
34738;BME280;39910;47.154;27.614;2022-09-27T16:02:40;99189.25;;;20.57;100.00
34738;BME280;39910;47.154;27.614;2022-09-27T16:05:06;99187.34;;;20.42;100.00
34738;BME280;39910;47.154;27.614;2022-09-27T16:07:31;99194.88;;;20.40;100.00
34738;BME280;39910;47.154;27.614;2022-09-27T16:09:57;99192.72;;;20.32;100.00
34738;BME280;39910;47.154;27.614;2022-09-27T16:12:22;99191.41;;;20.29;100.00
34738;BME280;39910;47.154;27.614;2022-09-27T16:14:48;99181.69;;;20.28;100.00